Time;durP1;ratioP1;P1;durP2;ratioP2;P2;SDS_P1;SDS_P2;PMS_P1;PMS_P2;Temp;Humidity;BMP_temperature;BMP_pressure;BME280_temperature;BME280_humidity;BME280_pressure;Samples;Min_cycle;Max_cycle;Signal;HPM_P1;HPM_P2
2021/12/08 00:00:08;;;;;;;2.10;2.00;;;;;;;0.55;96.48;94094.97;5099392;28;20201;-68
2021/12/08 00:02:34;;;;;;;2.13;2.03;;;;;;;0.54;96.46;94094.16;5096901;27;20212;-68
2021/12/08 00:05:01;;;;;;;2.73;1.83;;;;;;;0.60;95.93;94093.25;5099740;28;20193;-66
2021/12/08 00:07:29;;;;;;;1.90;1.80;;;;;;;0.51;96.30;94094.19;5099486;28;20277;-66
2021/12/08 00:10:05;;;;;;;2.23;2.03;;;;;;;0.46;96.80;94098.41;5098759;28;20718;-67
2021/12/08 00:15:17;;;;;;;2.10;2.00;;;;;;;0.40;96.97;94107.66;5099299;28;20816;-67
2021/12/08 00:17:44;;;;;;;2.37;2.17;;;;;;;0.67;95.72;94108.19;5099083;28;20285;-66
2021/12/08 00:20:11;;;;;;;3.03;2.30;;;;;;;0.59;95.08;94114.94;5100609;28;20205;-67
2021/12/08 00:22:38;;;;;;;2.10;2.00;;;;;;;0.53;94.88;94117.47;5100750;28;20205;-66
2021/12/08 00:25:06;;;;;;;2.17;2.07;;;;;;;0.42;95.78;94120.94;5100930;28;20703;-65
2021/12/08 00:27:33;;;;;;;2.60;2.40;;;;;;;0.31;96.58;94121.03;5100710;28;20188;-67
2021/12/08 00:29:59;;;;;;;2.93;2.73;;;;;;;0.33;95.48;94126.84;5100273;28;20262;-68
2021/12/08 00:32:30;;;;;;;2.00;1.90;;;;;;;0.38;95.59;94119.31;5100526;28;20670;-68
2021/12/08 00:34:57;;;;;;;2.80;2.60;;;;;;;0.40;96.12;94122.63;5100467;28;20763;-66
2021/12/08 00:37:26;;;;;;;3.27;2.77;;;;;;;0.28;95.72;94131.06;5099074;28;20290;-67
2021/12/08 00:39:53;;;;;;;2.57;2.43;;;;;;;0.42;94.81;94131.78;5098330;28;20245;-65
2021/12/08 00:42:20;;;;;;;2.73;2.53;;;;;;;0.36;94.85;94131.00;5098267;28;20262;-67
2021/12/08 00:44:47;;;;;;;2.57;2.43;;;;;;;0.15;95.95;94132.88;5098614;28;20278;-66
2021/12/08 00:47:16;;;;;;;3.10;2.90;;;;;;;0.29;96.11;94130.22;5098638;28;20648;-66
2021/12/08 00:49:46;;;;;;;2.67;2.47;;;;;;;0.28;96.18;94143.56;5098677;28;20201;-67
2021/12/08 00:52:14;;;;;;;3.10;2.90;;;;;;;0.56;95.10;94144.13;5098697;28;20208;-68
2021/12/08 00:54:42;;;;;;;2.90;2.70;;;;;;;0.45;94.74;94129.25;5098508;28;20197;-67
2021/12/08 00:57:10;;;;;;;2.70;2.50;;;;;;;0.46;94.33;94143.41;5098679;28;20282;-67
2021/12/08 00:59:37;;;;;;;3.40;3.20;;;;;;;0.38;95.23;94135.16;5100115;28;20201;-68
2021/12/08 01:02:05;;;;;;;3.60;2.80;;;;;;;0.40;95.47;94138.47;5100207;28;20193;-68
2021/12/08 01:04:33;;;;;;;2.70;2.50;;;;;;;0.33;94.89;94141.84;5100302;28;20986;-68
2021/12/08 01:07:02;;;;;;;2.73;2.60;;;;;;;0.29;94.88;94142.72;5100648;28;20216;-68
2021/12/08 01:09:29;;;;;;;4.20;3.57;;;;;;;0.37;95.05;94148.47;5100346;28;20221;-66
2021/12/08 01:11:57;;;;;;;3.03;2.83;;;;;;;0.19;95.42;94146.16;5100530;28;20609;-68
2021/12/08 01:14:25;;;;;;;2.80;2.70;;;;;;;0.53;94.77;94154.97;5100048;28;20216;-67
2021/12/08 01:16:52;;;;;;;3.37;2.73;;;;;;;0.37;94.21;94145.97;5098921;28;20301;-66
2021/12/08 01:19:19;;;;;;;3.20;3.00;;;;;;;0.43;94.83;94150.94;5098965;28;20398;-67
2021/12/08 01:21:47;;;;;;;3.33;3.13;;;;;;;0.46;94.70;94157.56;5098988;28;20201;-68
2021/12/08 01:24:15;;;;;;;3.67;3.00;;;;;;;0.51;93.99;94155.84;5098470;28;20228;-67
2021/12/08 01:26:42;;;;;;;3.97;3.67;;;;;;;0.59;94.56;94149.09;5098353;28;20201;-66
2021/12/08 01:29:09;;;;;;;3.47;3.27;;;;;;;0.73;93.76;94151.47;5097833;28;21468;-66
2021/12/08 01:31:41;;;;;;;3.60;3.03;;;;;;;0.86;92.07;94168.81;5099271;28;20197;-65
2021/12/08 01:34:09;;;;;;;4.60;4.17;;;;;;;0.65;92.80;94149.03;5099976;28;20237;-67
2021/12/08 01:36:36;;;;;;;4.23;3.93;;;;;;;0.53;94.17;94149.97;5096851;28;20220;-67
2021/12/08 01:39:05;;;;;;;4.07;3.77;;;;;;;0.59;93.74;94144.94;5097815;28;20302;-68
2021/12/08 01:41:33;;;;;;;4.37;3.63;;;;;;;0.55;93.51;94154.97;5098375;28;20668;-67
2021/12/08 01:46:45;;;;;;;4.43;4.10;;;;;;;0.55;93.67;94152.47;5098429;28;20744;-66
2021/12/08 01:49:13;;;;;;;5.00;4.53;;;;;;;0.46;94.01;94168.41;5097953;28;20209;-66
2021/12/08 01:51:39;;;;;;;4.90;4.40;;;;;;;0.40;94.54;94163.44;5097872;28;20205;-68
2021/12/08 01:54:07;;;;;;;5.43;4.93;;;;;;;0.34;95.18;94163.50;5097305;28;20604;-67
2021/12/08 01:56:36;;;;;;;6.20;5.40;;;;;;;0.47;95.41;94165.06;5097785;28;21359;-67
2021/12/08 01:59:05;;;;;;;5.93;5.30;;;;;;;0.51;94.82;94171.66;5098232;28;20206;-67
2021/12/08 02:01:35;;;;;;;6.03;5.53;;;;;;;0.34;95.35;94173.50;5098605;28;21201;-67
2021/12/08 02:04:04;;;;;;;5.73;5.23;;;;;;;0.48;95.59;94169.22;5097606;28;20193;-67
2021/12/08 02:06:33;;;;;;;5.90;5.40;;;;;;;0.38;94.81;94185.13;5098916;28;20201;-68
2021/12/08 02:09:00;;;;;;;6.60;5.90;;;;;;;0.40;94.25;94173.44;5099278;28;20247;-67
2021/12/08 02:11:27;;;;;;;6.10;5.60;;;;;;;0.29;94.53;94176.03;5100008;28;20201;-67
2021/12/08 02:14:00;;;;;;;6.50;5.93;;;;;;;0.34;95.44;94173.50;5099655;28;20329;-67
2021/12/08 02:16:27;;;;;;;7.00;6.40;;;;;;;0.40;94.42;94185.94;5101549;28;20240;-67
2021/12/08 02:18:54;;;;;;;7.20;6.60;;;;;;;0.32;95.07;94191.00;5103141;28;20625;-65
2021/12/08 02:21:26;;;;;;;8.20;6.30;;;;;;;0.42;95.18;94199.25;5103232;28;20291;-67
2021/12/08 02:23:56;;;;;;;7.07;6.37;;;;;;;0.72;93.50;94189.81;5103555;28;20208;-67
2021/12/08 02:26:23;;;;;;;6.70;6.10;;;;;;;0.54;92.80;94189.13;5103445;28;20707;-68
2021/12/08 02:28:50;;;;;;;8.90;7.10;;;;;;;0.44;94.45;94199.25;5102471;28;20201;-67
2021/12/08 02:31:26;;;;;;;6.67;5.97;;;;;;;0.48;95.14;94204.22;5101031;28;20216;-67
2021/12/08 02:47:52;;;;;;;9.33;8.33;;;;;;;0.45;94.42;94206.72;5101190;28;20254;-67
2021/12/08 02:50:20;;;;;;;9.80;7.60;;;;;;;0.44;94.25;94214.25;5100369;28;20209;-67
2021/12/08 02:52:49;;;;;;;9.60;7.67;;;;;;;0.43;94.74;94207.59;5100726;28;21407;-67
2021/12/08 02:55:16;;;;;;;10.13;7.63;;;;;;;0.58;94.23;94203.25;5100710;28;20197;-66
2021/12/08 02:57:43;;;;;;;13.37;8.07;;;;;;;0.50;94.61;94220.00;5101091;28;20216;-66
2021/12/08 03:00:14;;;;;;;11.93;8.60;;;;;;;0.54;94.20;94215.81;5100795;28;20641;-66
2021/12/08 03:02:41;;;;;;;13.33;8.93;;;;;;;0.63;94.60;94215.72;5100724;28;20265;-66
2021/12/08 03:05:08;;;;;;;14.10;8.77;;;;;;;0.49;93.79;94213.38;5100410;28;20627;-67
2021/12/08 03:07:37;;;;;;;15.80;8.97;;;;;;;0.35;94.67;94210.13;5100528;28;20201;-67
2021/12/08 03:10:08;;;;;;;14.13;9.90;;;;;;;0.34;95.46;94213.47;5100134;28;20221;-67
2021/12/08 03:12:35;;;;;;;12.67;9.37;;;;;;;0.30;95.91;94221.84;5100924;28;20250;-67
2021/12/08 03:15:02;;;;;;;12.60;9.50;;;;;;;0.36;96.54;94211.78;5102091;28;20226;-67
2021/12/08 03:17:28;;;;;;;13.47;10.37;;;;;;;0.59;95.30;94204.94;5101873;28;20727;-67
2021/12/08 03:19:55;;;;;;;13.93;9.77;;;;;;;0.52;93.91;94208.31;5102170;28;20201;-65
2021/12/08 03:22:23;;;;;;;12.33;9.30;;;;;;;0.49;94.86;94213.38;5102078;28;20220;-67
2021/12/08 03:24:51;;;;;;;14.23;9.77;;;;;;;0.37;95.25;94218.44;5102575;28;20240;-66
2021/12/08 03:27:26;;;;;;;14.80;9.57;;;;;;;0.36;96.03;94216.78;5101814;28;20201;-65
2021/12/08 03:29:56;;;;;;;12.00;9.70;;;;;;;0.41;95.34;94215.09;5101901;28;20210;-65
2021/12/08 03:32:31;;;;;;;13.67;9.43;;;;;;;0.34;96.21;94215.97;5102113;28;20205;-66
2021/12/08 03:34:58;;;;;;;15.00;10.30;;;;;;;0.57;95.71;94228.28;5101751;28;20192;-65
2021/12/08 03:37:28;;;;;;;12.50;9.67;;;;;;;0.63;95.68;94226.56;5101536;28;20710;-66
2021/12/08 03:39:56;;;;;;;14.57;9.97;;;;;;;0.47;95.41;94239.22;5100591;28;20233;-66
2021/12/08 03:42:27;;;;;;;16.53;9.87;;;;;;;0.37;95.43;94248.44;5101604;28;20204;-65
2021/12/08 03:44:56;;;;;;;15.57;10.15;;;;;;;0.39;96.09;94241.75;5101093;28;20700;-65
2021/12/08 03:47:28;;;;;;;13.37;9.67;;;;;;;0.45;95.69;94235.91;5100906;28;20302;-67
2021/12/08 03:49:59;;;;;;;14.40;9.97;;;;;;;0.55;94.95;94250.78;5097826;28;20250;-66
2021/12/08 03:52:26;;;;;;;18.43;11.20;;;;;;;0.47;95.80;94254.22;5099607;28;20356;-66
2021/12/08 03:54:53;;;;;;;19.83;10.80;;;;;;;0.54;96.05;94254.13;5099542;28;20251;-67
2021/12/08 03:57:20;;;;;;;19.57;11.40;;;;;;;0.59;95.01;94257.44;5099585;28;20225;-67
2021/12/08 03:59:48;;;;;;;19.27;10.47;;;;;;;0.56;94.82;94279.13;5099399;28;20193;-67
2021/12/08 04:02:15;;;;;;;13.60;9.97;;;;;;;0.52;94.81;94260.81;5099884;28;20197;-66
2021/12/08 04:04:45;;;;;;;15.40;9.83;;;;;;;0.46;94.92;94258.38;5099670;27;20189;-65
2021/12/08 04:07:14;;;;;;;14.50;9.87;;;;;;;0.43;95.72;94253.41;5099918;28;20209;-65
2021/12/08 04:09:43;;;;;;;14.07;10.57;;;;;;;0.31;95.72;94263.47;5098802;27;20220;-67
2021/12/08 04:12:13;;;;;;;16.53;10.10;;;;;;;0.36;95.50;94265.94;5098811;28;20729;-67
2021/12/08 04:14:46;;;;;;;17.17;9.93;;;;;;;0.32;95.64;94272.63;5098964;28;20212;-66
2021/12/08 04:17:19;;;;;;;14.17;10.00;;;;;;;0.39;96.03;94264.25;5099673;28;20239;-65
2021/12/08 04:19:48;;;;;;;14.30;10.20;;;;;;;0.39;96.16;94266.75;5100903;28;20651;-65
2021/12/08 04:22:24;;;;;;;16.30;9.87;;;;;;;0.52;95.99;94270.81;5101235;28;20201;-65
2021/12/08 04:24:52;;;;;;;15.23;9.67;;;;;;;0.47;95.42;94264.22;5102028;28;20217;-66
2021/12/08 04:27:26;;;;;;;17.53;10.63;;;;;;;0.35;96.01;94277.59;5100986;28;20193;-65
2021/12/08 04:29:53;;;;;;;12.10;9.07;;;;;;;0.33;95.51;94287.63;5099296;28;20192;-67
2021/12/08 04:32:26;;;;;;;17.83;11.03;;;;;;;0.53;95.35;94274.13;5099854;28;20608;-66
2021/12/08 04:34:57;;;;;;;12.63;9.60;;;;;;;0.37;95.89;94287.59;5098925;28;20284;-66
2021/12/08 04:37:29;;;;;;;16.07;10.07;;;;;;;0.23;96.19;94285.22;5098827;28;20225;-68
2021/12/08 04:40:09;;;;;;;15.03;8.83;;;;;;;0.25;96.53;94279.34;5098109;28;20248;-66
2021/12/08 04:42:51;;;;;;;19.73;9.40;;;;;;;0.41;95.43;94294.25;5096235;28;20201;-67
2021/12/08 04:45:26;;;;;;;16.23;9.67;;;;;;;0.39;96.33;94296.75;5097965;28;20200;-65
2021/12/08 04:48:11;;;;;;;15.53;9.07;;;;;;;0.38;95.56;94304.25;5098972;28;20199;-66
2021/12/08 04:51:08;;;;;;;15.83;9.50;;;;;;;0.33;95.75;94306.78;5097815;28;20189;-66
2021/12/08 04:53:46;;;;;;;15.53;10.03;;;;;;;0.33;95.18;94319.28;5097600;28;20269;-66
2021/12/08 05:02:02;;;;;;;26.90;15.60;;;;;;;0.29;96.68;94307.63;5095778;28;20239;-66
2021/12/08 05:04:44;;;;;;;20.50;13.47;;;;;;;0.44;97.00;94325.03;5096676;28;20211;-66
2021/12/08 05:07:32;;;;;;;20.53;11.30;;;;;;;0.35;96.12;94330.09;5096808;28;20551;-65
2021/12/08 05:10:03;;;;;;;16.13;10.33;;;;;;;0.25;96.65;94339.31;5097827;28;20225;-67
2021/12/08 05:12:33;;;;;;;18.93;10.80;;;;;;;0.40;96.46;94338.41;5096330;28;20292;-66
2021/12/08 05:15:06;;;;;;;20.23;11.13;;;;;;;0.49;95.37;94343.34;5097594;28;20201;-65
2021/12/08 05:17:37;;;;;;;17.53;11.37;;;;;;;0.41;95.77;94359.22;5098731;28;20584;-65
2021/12/08 05:20:12;;;;;;;19.50;11.00;;;;;;;0.32;96.22;94348.44;5097698;28;20204;-67
2021/12/08 05:22:46;;;;;;;18.37;11.70;;;;;;;0.45;95.79;94351.69;5097483;28;20693;-66
2021/12/08 05:25:17;;;;;;;14.73;11.13;;;;;;;0.46;94.83;94358.38;5097458;28;20204;-67
2021/12/08 05:27:47;;;;;;;16.87;10.13;;;;;;;0.45;94.67;94351.69;5100124;28;20197;-66
2021/12/08 05:30:18;;;;;;;19.03;10.40;;;;;;;0.39;95.32;94361.72;5099521;28;20296;-66
2021/12/08 05:32:45;;;;;;;14.80;11.00;;;;;;;0.32;95.78;94360.94;5100055;28;20299;-66
2021/12/08 05:35:15;;;;;;;16.83;11.67;;;;;;;0.31;95.97;94359.25;5099292;28;20201;-68
2021/12/08 05:37:42;;;;;;;17.80;10.73;;;;;;;0.52;95.02;94355.78;5100304;28;20281;-66
2021/12/08 05:40:12;;;;;;;16.83;10.27;;;;;;;0.40;95.04;94353.41;5098833;28;20281;-66
2021/12/08 05:42:39;;;;;;;21.43;11.63;;;;;;;0.38;94.83;94364.22;5098560;28;20586;-67
2021/12/08 05:45:12;;;;;;;19.03;11.33;;;;;;;0.44;95.95;94380.03;5097478;28;20205;-65
2021/12/08 05:47:42;;;;;;;19.13;11.53;;;;;;;0.40;95.49;94370.88;5097775;28;20250;-65
2021/12/08 05:50:11;;;;;;;16.73;11.60;;;;;;;0.23;95.87;94380.16;5099470;28;20675;-66
2021/12/08 05:52:40;;;;;;;18.00;9.87;;;;;;;0.29;95.56;94375.09;5102268;28;20201;-67
2021/12/08 05:55:08;;;;;;;15.80;11.17;;;;;;;0.27;96.08;94370.09;5103966;28;20621;-66
2021/12/08 05:57:39;;;;;;;18.23;10.93;;;;;;;0.27;95.66;94377.59;5103021;28;20232;-65
2021/12/08 06:00:09;;;;;;;20.70;10.93;;;;;;;0.16;96.92;94388.50;5103156;28;20197;-66
2021/12/08 06:02:38;;;;;;;17.60;11.30;;;;;;;0.14;96.93;94385.19;5101276;28;20341;-66
2021/12/08 06:05:09;;;;;;;22.27;12.60;;;;;;;0.27;96.44;94381.78;5100543;28;20236;-67
2021/12/08 06:07:36;;;;;;;15.93;9.70;;;;;;;0.18;97.44;94391.84;5101932;28;20680;-66
2021/12/08 06:10:09;;;;;;;17.33;11.47;;;;;;;0.28;96.22;94433.41;5100897;28;20221;-67
2021/12/08 06:12:36;;;;;;;21.93;11.23;;;;;;;0.30;96.16;94414.25;5100956;28;20257;-68
2021/12/08 06:15:04;;;;;;;17.73;11.33;;;;;;;0.38;96.12;94405.06;5101335;28;20189;-65
2021/12/08 06:17:32;;;;;;;22.23;11.63;;;;;;;0.34;95.99;94403.41;5100491;28;20229;-66
2021/12/08 06:19:59;;;;;;;20.67;11.90;;;;;;;0.34;96.45;94410.91;5100728;28;20655;-66
2021/12/08 06:22:27;;;;;;;18.50;11.33;;;;;;;0.44;94.96;94420.03;5101631;28;20225;-66
2021/12/08 06:24:54;;;;;;;18.20;11.20;;;;;;;0.35;95.73;94420.06;5101200;28;20679;-66
2021/12/08 06:27:22;;;;;;;22.13;10.90;;;;;;;0.52;95.74;94412.47;5100509;28;20189;-67
2021/12/08 06:29:50;;;;;;;19.10;10.20;;;;;;;0.43;95.91;94418.38;5101787;28;20664;-66
2021/12/08 06:32:18;;;;;;;21.53;11.43;;;;;;;0.35;95.47;94425.06;5100935;28;20250;-66
2021/12/08 06:34:48;;;;;;;17.40;10.60;;;;;;;0.36;95.45;94426.72;5102348;28;20369;-66
2021/12/08 06:37:18;;;;;;;18.83;11.20;;;;;;;0.41;95.23;94442.53;5103449;28;20197;-68
2021/12/08 06:39:48;;;;;;;15.90;9.97;;;;;;;0.30;95.24;94429.25;5102413;28;20220;-67
2021/12/08 06:42:19;;;;;;;16.60;9.87;;;;;;;0.21;96.15;94426.81;5103301;28;20193;-65
2021/12/08 06:44:52;;;;;;;20.33;11.83;;;;;;;0.31;96.26;94428.41;5101813;28;20200;-66
2021/12/08 06:47:22;;;;;;;15.13;10.43;;;;;;;0.22;96.44;94415.97;5102971;28;20209;-66
2021/12/08 06:49:51;;;;;;;16.83;11.50;;;;;;;0.40;96.67;94432.53;5103311;28;20201;-68
2021/12/08 06:52:21;;;;;;;16.27;10.97;;;;;;;0.41;96.61;94420.03;5101748;28;20269;-67
2021/12/08 06:54:51;;;;;;;18.07;12.30;;;;;;;0.52;95.88;94425.78;5102384;28;20282;-67
2021/12/08 06:57:25;;;;;;;15.13;9.57;;;;;;;0.68;96.15;94417.38;5102882;28;20215;-67
2021/12/08 06:59:58;;;;;;;14.17;10.27;;;;;;;0.81;96.24;94420.63;5101997;28;20185;-67
2021/12/08 07:02:37;;;;;;;13.80;9.57;;;;;;;0.95;94.65;94423.88;5101954;28;20277;-67
2021/12/08 07:05:12;;;;;;;13.20;10.13;;;;;;;0.97;94.50;94426.38;5098850;28;20561;-67
2021/12/08 07:07:43;;;;;;;17.97;10.67;;;;;;;1.09;93.04;94421.25;5100783;28;20318;-67
2021/12/08 07:10:14;;;;;;;15.53;9.53;;;;;;;0.99;93.02;94440.50;5099594;28;20217;-67
2021/12/08 07:12:44;;;;;;;15.40;9.73;;;;;;;1.10;93.20;94442.94;5100123;28;20241;-67
2021/12/08 07:15:16;;;;;;;20.80;9.37;;;;;;;1.19;92.71;94427.88;5100043;28;20619;-67
2021/12/08 07:17:46;;;;;;;16.47;8.87;;;;;;;0.99;92.70;94434.69;5100131;28;20298;-66
2021/12/08 07:20:29;;;;;;;12.40;9.07;;;;;;;1.06;92.20;94471.31;5100041;28;21671;-66
2021/12/08 07:22:57;;;;;;;13.87;8.83;;;;;;;1.05;91.06;94429.63;5099238;28;20197;-66
2021/12/08 07:25:29;;;;;;;20.77;10.73;;;;;;;1.10;91.17;94445.44;5099796;28;20655;-67
2021/12/08 07:27:57;;;;;;;13.03;8.87;;;;;;;0.96;91.07;94429.72;5100669;28;20628;-68
2021/12/08 07:30:29;;;;;;;16.73;8.30;;;;;;;0.94;91.01;94442.22;5099159;28;20659;-66
2021/12/08 07:32:56;;;;;;;14.73;8.40;;;;;;;0.95;90.96;94451.38;5100083;28;20246;-66
2021/12/08 07:35:26;;;;;;;12.90;9.30;;;;;;;1.10;91.22;94440.44;5099054;28;20201;-66
2021/12/08 07:37:53;;;;;;;13.17;9.50;;;;;;;1.18;90.97;94458.72;5101220;28;20737;-67
2021/12/08 07:40:23;;;;;;;12.98;9.27;;;;;;;1.26;90.89;94464.50;5100840;28;20218;-66
2021/12/08 07:42:55;;;;;;;14.33;9.33;;;;;;;1.26;90.12;94458.66;5101515;28;20209;-69
2021/12/08 07:45:30;;;;;;;13.47;10.03;;;;;;;1.27;89.86;94466.16;5102172;28;20212;-66
2021/12/08 07:48:01;;;;;;;13.30;9.70;;;;;;;1.19;89.30;94472.91;5101589;28;20195;-66
2021/12/08 07:50:35;;;;;;;13.30;8.97;;;;;;;0.88;90.08;94472.28;5101458;28;20661;-66
2021/12/08 07:53:04;;;;;;;11.77;9.13;;;;;;;0.93;89.79;94477.25;5100980;28;20651;-66
2021/12/08 07:55:35;;;;;;;13.50;9.83;;;;;;;0.83;91.46;94483.13;5101668;28;20197;-66
2021/12/08 07:58:06;;;;;;;11.27;8.77;;;;;;;0.79;91.02;94481.50;5100873;28;20232;-67
2021/12/08 08:00:39;;;;;;;12.07;9.40;;;;;;;0.80;90.77;94485.66;5101360;28;20201;-66
2021/12/08 08:03:08;;;;;;;11.53;9.17;;;;;;;1.00;90.91;94489.69;5101103;28;20712;-66
2021/12/08 08:05:37;;;;;;;11.80;8.73;;;;;;;1.07;90.37;94497.16;5101055;28;20215;-67
2021/12/08 08:08:08;;;;;;;14.87;9.43;;;;;;;1.05;90.41;94489.66;5101716;28;20212;-66
2021/12/08 08:10:40;;;;;;;13.47;9.23;;;;;;;1.09;90.94;94491.31;5100655;28;20224;-67
2021/12/08 08:13:08;;;;;;;15.60;9.93;;;;;;;1.09;89.88;94508.84;5099992;28;20285;-67
2021/12/08 08:15:42;;;;;;;12.33;8.27;;;;;;;1.26;89.42;94509.53;5098411;28;20597;-67
2021/12/08 08:18:11;;;;;;;16.60;9.00;;;;;;;1.08;88.63;94504.66;5098641;28;20258;-68
2021/12/08 08:20:47;;;;;;;13.30;9.10;;;;;;;0.95;90.64;94508.94;5099343;28;20918;-67
2021/12/08 08:23:15;;;;;;;11.40;8.30;;;;;;;0.97;90.42;94497.25;5099635;28;20233;-65
2021/12/08 08:25:44;;;;;;;36.27;16.27;;;;;;;0.95;91.51;94493.91;5098868;27;20349;-73
2021/12/08 08:28:11;;;;;;;32.37;15.90;;;;;;;1.81;94.33;94499.09;5100652;28;20215;-71
2021/12/08 08:30:44;;;;;;;17.70;10.77;;;;;;;2.02;88.04;94496.38;5098848;28;20277;-66
2021/12/08 08:33:12;;;;;;;14.30;9.37;;;;;;;1.91;85.77;94495.66;5098955;28;20672;-66
2021/12/08 08:35:42;;;;;;;17.83;10.33;;;;;;;1.63;86.63;94504.28;5098661;28;20197;-67
2021/12/08 08:38:16;;;;;;;18.97;10.47;;;;;;;1.53;86.26;94500.16;5098721;28;20232;-70
2021/12/08 08:40:49;;;;;;;14.13;9.63;;;;;;;1.38;87.56;94505.31;5097877;28;20204;-68
2021/12/08 08:43:18;;;;;;;22.90;10.40;;;;;;;1.48;87.08;94505.25;5098879;28;20200;-67
2021/12/08 08:45:52;;;;;;;17.17;10.37;;;;;;;1.17;87.77;94509.63;5099788;28;20205;-66
2021/12/08 08:48:23;;;;;;;17.37;10.33;;;;;;;1.24;87.85;94512.91;5100329;28;20193;-67
2021/12/08 08:50:53;;;;;;;16.17;9.27;;;;;;;1.19;88.52;94507.94;5100310;28;20197;-68
2021/12/08 08:53:22;;;;;;;14.23;9.73;;;;;;;1.02;88.55;94497.19;5099351;28;20249;-67
2021/12/08 08:55:51;;;;;;;12.43;8.63;;;;;;;1.04;89.00;94503.03;5098334;28;20208;-66
2021/12/08 08:58:20;;;;;;;13.67;8.90;;;;;;;1.15;89.50;94501.28;5098809;28;20236;-67
2021/12/08 09:00:52;;;;;;;13.03;9.07;;;;;;;0.96;89.75;94507.25;5095438;28;20208;-67
2021/12/08 09:03:21;;;;;;;13.57;8.90;;;;;;;0.97;88.36;94496.41;5099301;28;20201;-66
2021/12/08 09:05:54;;;;;;;15.93;9.53;;;;;;;1.18;88.52;94491.28;5098710;28;20215;-67
2021/12/08 09:08:24;;;;;;;16.27;9.87;;;;;;;1.15;88.26;94482.94;5100690;28;20204;-65
2021/12/08 09:10:56;;;;;;;15.03;7.90;;;;;;;1.22;88.27;94487.91;5099139;28;20220;-66
2021/12/08 09:13:28;;;;;;;15.63;10.03;;;;;;;1.11;86.75;94482.13;5100734;28;20625;-67
2021/12/08 09:16:01;;;;;;;13.57;9.27;;;;;;;0.96;87.95;94482.25;5098699;28;20205;-67
2021/12/08 09:18:34;;;;;;;13.50;9.60;;;;;;;1.07;88.86;94493.00;5098162;28;20707;-68
2021/12/08 09:21:13;;;;;;;19.50;10.83;;;;;;;1.23;89.08;94474.56;5098128;28;20205;-68
2021/12/08 09:23:45;;;;;;;20.13;9.93;;;;;;;1.26;88.43;94474.50;5098241;28;20201;-67
2021/12/08 09:26:15;;;;;;;17.40;9.43;;;;;;;1.39;89.10;94459.41;5102235;28;20196;-66
2021/12/08 09:28:47;;;;;;;18.17;10.70;;;;;;;1.45;88.57;94459.38;5101741;28;20285;-67
2021/12/08 09:31:23;;;;;;;19.50;10.23;;;;;;;1.55;88.84;94460.94;5102714;28;20738;-65
2021/12/08 09:33:57;;;;;;;18.70;12.27;;;;;;;1.74;85.18;94449.88;5103938;28;20196;-67
2021/12/08 09:36:27;;;;;;;17.63;10.30;;;;;;;1.62;86.45;94462.53;5104422;28;20205;-68
2021/12/08 09:38:57;;;;;;;16.93;8.90;;;;;;;1.62;87.11;94453.34;5103881;28;20271;-66
2021/12/08 09:41:28;;;;;;;15.57;9.87;;;;;;;1.73;86.78;94443.25;5100175;28;20281;-66
2021/12/08 09:44:01;;;;;;;10.60;8.60;;;;;;;1.89;87.16;94457.28;5102460;28;20738;-68
2021/12/08 09:46:33;;;;;;;14.10;9.97;;;;;;;1.83;86.83;94443.97;5101405;28;20193;-69
2021/12/08 09:49:01;;;;;;;13.57;9.50;;;;;;;1.86;87.13;94443.94;5102062;28;20608;-67
2021/12/08 09:51:31;;;;;;;12.43;9.43;;;;;;;2.00;86.58;94442.09;5101538;28;20197;-67
2021/12/08 09:53:59;;;;;;;10.73;8.33;;;;;;;1.92;86.06;94452.22;5101988;28;20574;-67
2021/12/08 09:56:27;;;;;;;15.87;8.90;;;;;;;2.02;86.09;94438.75;5102469;28;20200;-66
2021/12/08 09:58:55;;;;;;;12.73;8.87;;;;;;;2.03;86.50;94434.56;5101132;28;20233;-67
2021/12/08 10:01:23;;;;;;;14.27;9.87;;;;;;;2.34;84.83;94445.91;5101860;28;20361;-67
2021/12/08 10:03:53;;;;;;;15.47;9.53;;;;;;;2.20;84.53;94432.72;5101133;28;20204;-67
2021/12/08 10:06:23;;;;;;;13.13;9.33;;;;;;;2.28;84.29;94438.44;5102052;28;20213;-68
2021/12/08 10:08:57;;;;;;;13.33;9.60;;;;;;;2.39;84.71;94449.19;5101257;28;20671;-68
2021/12/08 10:11:26;;;;;;;16.40;10.00;;;;;;;2.44;86.89;94441.63;5102309;28;20287;-69
2021/12/08 10:13:53;;;;;;;14.83;9.60;;;;;;;2.54;85.07;94448.16;5101240;28;20320;-68
2021/12/08 10:16:20;;;;;;;16.77;9.93;;;;;;;2.48;84.66;94447.41;5101659;28;20200;-67
2021/12/08 10:18:47;;;;;;;19.97;11.40;;;;;;;2.65;83.62;94451.38;5101897;28;20225;-68
2021/12/08 10:21:16;;;;;;;21.67;11.80;;;;;;;2.59;84.42;94458.13;5101572;28;20201;-67
2021/12/08 10:23:45;;;;;;;22.53;12.13;;;;;;;2.46;84.05;94446.63;5102249;28;20253;-67
2021/12/08 10:26:14;;;;;;;15.63;9.97;;;;;;;2.36;84.69;94453.41;5102171;28;21196;-67
2021/12/08 10:28:43;;;;;;;16.27;9.60;;;;;;;2.41;85.19;94441.66;5102739;28;20201;-67
2021/12/08 10:31:14;;;;;;;17.90;11.03;;;;;;;2.10;85.54;94436.16;5103170;28;20197;-68
2021/12/08 10:33:54;;;;;;;14.10;9.03;;;;;;;2.11;86.19;94440.31;5103348;28;20209;-68
2021/12/08 10:39:25;;;;;;;18.40;10.47;;;;;;;2.04;86.41;94437.06;5076078;27;20252;-67
2021/12/08 10:42:02;;;;;;;13.67;10.27;;;;;;;2.14;85.78;94441.97;5103232;28;20208;-67
2021/12/08 10:44:36;;;;;;;14.90;10.10;;;;;;;2.28;84.88;94427.59;5102492;28;20212;-68
2021/12/08 10:47:03;;;;;;;16.47;10.47;;;;;;;2.47;84.74;94430.72;5103295;28;20193;-67
2021/12/08 10:54:58;;;;;;;13.47;9.53;;;;;;;2.95;81.67;94435.06;5101305;28;20494;-68
2021/12/08 10:57:27;;;;;;;14.93;9.50;;;;;;;2.86;81.91;94429.34;5099660;28;20201;-67
2021/12/08 10:59:57;;;;;;;14.53;10.07;;;;;;;2.85;82.43;94437.72;5100853;28;20578;-69
2021/12/08 11:02:39;;;;;;;13.53;9.43;;;;;;;2.76;82.11;94426.13;5099618;28;20258;-68
2021/12/08 11:05:08;;;;;;;12.47;8.87;;;;;;;2.89;81.10;94429.31;5101201;28;20284;-69
2021/12/08 11:07:36;;;;;;;11.67;9.20;;;;;;;2.57;81.79;94430.56;5099960;28;20189;-66
2021/12/08 11:10:18;;;;;;;12.60;9.03;;;;;;;2.56;82.94;94431.41;5100207;28;20335;-69
2021/12/08 11:12:45;;;;;;;17.17;9.73;;;;;;;2.45;84.22;94428.22;5100670;28;20672;-66
2021/12/08 11:15:20;;;;;;;13.63;9.93;;;;;;;2.42;83.39;94427.44;5099475;28;20213;-65
2021/12/08 11:17:48;;;;;;;14.00;9.07;;;;;;;2.41;83.63;94446.66;5099640;28;20316;-67
2021/12/08 11:20:17;;;;;;;16.37;10.17;;;;;;;2.50;83.65;94435.66;5100779;28;21230;-66
2021/12/08 11:22:58;;;;;;;17.23;10.33;;;;;;;2.56;82.86;94441.44;5102400;28;20680;-67
2021/12/08 11:25:33;;;;;;;11.43;9.20;;;;;;;2.53;83.68;94438.97;5101774;28;20698;-67
2021/12/08 11:28:18;;;;;;;16.70;10.17;;;;;;;2.49;83.88;94439.03;5101969;28;20657;-67
2021/12/08 11:30:45;;;;;;;14.13;10.73;;;;;;;2.64;83.57;94434.66;5101390;28;20713;-67
2021/12/08 11:33:15;;;;;;;14.77;10.43;;;;;;;2.89;82.27;94445.19;5101894;28;20208;-68
2021/12/08 11:35:42;;;;;;;15.07;9.93;;;;;;;3.09;81.95;94442.38;5100940;28;20197;-65
2021/12/08 11:38:10;;;;;;;12.43;8.77;;;;;;;2.97;82.20;94447.59;5102062;28;20254;-66
2021/12/08 11:40:38;;;;;;;12.50;8.43;;;;;;;3.06;80.53;94452.47;5101298;28;21395;-68
2021/12/08 11:43:13;;;;;;;13.77;9.50;;;;;;;2.94;81.38;94448.47;5100573;28;20193;-66
2021/12/08 11:45:42;;;;;;;14.10;9.97;;;;;;;2.86;81.99;94444.41;5100552;28;20200;-68
2021/12/08 11:48:22;;;;;;;14.70;10.13;;;;;;;2.90;81.24;94446.03;5100981;28;20664;-68
2021/12/08 11:50:49;;;;;;;15.73;10.63;;;;;;;2.61;82.73;94447.25;5096654;28;20327;-67
2021/12/08 11:53:22;;;;;;;13.70;9.57;;;;;;;2.53;82.01;94451.50;5099596;28;20321;-68
2021/12/08 11:55:49;;;;;;;15.73;11.17;;;;;;;2.69;81.64;94455.50;5099053;28;20205;-68
2021/12/08 11:58:16;;;;;;;16.37;10.40;;;;;;;2.68;82.85;94451.34;5099292;28;20577;-69
2021/12/08 12:00:48;;;;;;;16.03;11.27;;;;;;;2.63;83.02;94455.56;5098366;28;20317;-68
2021/12/08 12:03:15;;;;;;;18.20;10.17;;;;;;;2.47;83.22;94456.63;5098516;28;20204;-68
2021/12/08 12:05:45;;;;;;;15.10;9.50;;;;;;;2.44;84.75;94466.69;5098907;28;20237;-68
2021/12/08 12:08:14;;;;;;;15.03;9.60;;;;;;;2.37;82.45;94460.09;5097410;28;20201;-67
2021/12/08 12:10:45;;;;;;;12.63;9.77;;;;;;;2.50;83.54;94461.56;5098639;28;20205;-68
2021/12/08 12:13:13;;;;;;;14.90;9.63;;;;;;;2.34;83.55;94455.09;5098313;28;20201;-67
2021/12/08 12:15:44;;;;;;;12.83;10.53;;;;;;;2.32;83.58;94461.81;5098392;28;20204;-67
2021/12/08 12:18:11;;;;;;;15.10;10.53;;;;;;;2.41;84.24;94461.72;5098956;28;20852;-66